Terminal Aerodrome Forecast
Issued by NWS Amarillo, TX

Home | Current Version | Previous Version | Text Only | Print | Product List | Glossary On
Versions: 1 2 3 4 5 6 7 8 9 10 11 12 13 14 15 16 17 18 19 20 21 22 23 24 25 26 27
000
FTUS44 KAMA 271800 AAA
TAFDHT
TAF AMD
KDHT 271849Z 2719/2818 16014KT P6SM OVC015
      TEMPO 2719/2721 2SM -SN
     FM280400 17013KT 3SM -SN BR OVC010
     FM281600 18012KT 6SM BR BKN012=

USA.gov is the U.S. government's official web portal to all federal, state and local government web resources and services.